Time;durP1;ratioP1;P1;durP2;ratioP2;P2;SDS_P1;SDS_P2;PMS_P1;PMS_P2;Temp;Humidity;BMP_temperature;BMP_pressure;BME280_temperature;BME280_humidity;BME280_pressure;Samples;Min_cycle;Max_cycle;Signal;HPM_P1;HPM_P2
2023/05/20 00:00:49;;;;;;;4.28;1.48;;;;;;;21.83;32.92;101994.72;4960051;28;20035;-64
2023/05/20 00:03:19;;;;;;;1.75;1.00;;;;;;;21.79;32.74;101996.09;4975882;28;20041;-63
2023/05/20 00:05:45;;;;;;;3.63;1.52;;;;;;;21.76;32.60;101995.59;4975413;28;20026;-63
2023/05/20 00:08:10;;;;;;;2.40;1.23;;;;;;;21.73;32.80;101993.22;4972375;28;20090;-63
2023/05/20 00:10:36;;;;;;;2.75;1.40;;;;;;;21.68;32.27;101985.56;4950550;28;20031;-63
2023/05/20 00:13:02;;;;;;;1.33;1.20;;;;;;;21.64;32.64;101994.25;4943851;28;20027;-62
2023/05/20 00:15:28;;;;;;;3.72;1.13;;;;;;;21.62;32.84;101996.31;4975462;28;20529;-63
2023/05/20 00:17:54;;;;;;;3.03;1.15;;;;;;;21.57;32.51;102010.47;4976490;28;20038;-62
2023/05/20 00:20:20;;;;;;;2.20;0.90;;;;;;;21.53;32.70;102008.22;4959034;28;20031;-65
2023/05/20 00:22:45;;;;;;;2.85;1.55;;;;;;;21.51;32.99;102004.84;4975162;28;20446;-63
2023/05/20 00:25:13;;;;;;;2.83;1.30;;;;;;;21.47;33.28;102013.34;4975749;28;20109;-63
2023/05/20 00:27:39;;;;;;;3.22;1.25;;;;;;;21.45;33.56;102022.72;4975241;28;20027;-64
2023/05/20 00:30:05;;;;;;;2.78;1.17;;;;;;;21.42;33.16;102006.72;4975310;28;20038;-65
2023/05/20 00:32:30;;;;;;;4.90;1.27;;;;;;;21.38;33.20;102011.66;4975275;28;20035;-63
2023/05/20 00:34:57;;;;;;;4.97;1.23;;;;;;;21.32;33.06;102006.91;4959301;28;20114;-63
2023/05/20 00:37:23;;;;;;;4.65;0.82;;;;;;;21.32;32.88;102012.34;4958521;28;20078;-63
2023/05/20 00:39:49;;;;;;;3.65;1.20;;;;;;;21.29;33.66;102012.69;4975089;28;20065;-63
2023/05/20 00:42:21;;;;;;;4.03;1.08;;;;;;;21.24;33.23;102004.19;4975156;28;20059;-63
2023/05/20 00:44:47;;;;;;;4.28;1.77;;;;;;;21.20;33.43;102010.13;4975135;28;20034;-63
2023/05/20 00:47:13;;;;;;;3.17;0.98;;;;;;;21.16;33.27;102012.31;4974828;28;20033;-63
2023/05/20 00:49:39;;;;;;;1.17;1.08;;;;;;;21.12;33.38;102010.97;4958810;28;20113;-63
2023/05/20 00:52:05;;;;;;;2.97;1.30;;;;;;;21.10;33.68;102006.72;4959074;28;20467;-63
2023/05/20 00:54:31;;;;;;;3.75;0.85;;;;;;;21.07;33.99;102010.63;4974850;28;20045;-63
2023/05/20 00:56:57;;;;;;;2.78;1.23;;;;;;;21.05;34.31;102001.72;4975830;28;20042;-63
2023/05/20 00:59:23;;;;;;;2.15;1.00;;;;;;;21.04;34.38;102013.66;4958477;28;20034;-64
2023/05/20 01:01:48;;;;;;;2.65;1.25;;;;;;;21.00;33.89;102006.81;4974670;28;20443;-64
2023/05/20 01:04:13;;;;;;;1.90;1.02;;;;;;;20.96;33.79;102005.47;4975629;28;20038;-63
2023/05/20 01:06:39;;;;;;;4.70;1.92;;;;;;;20.92;34.16;102004.09;4961149;28;20031;-63
2023/05/20 01:09:05;;;;;;;1.92;1.15;;;;;;;20.85;34.00;102000.34;4975971;28;20039;-63
2023/05/20 01:11:34;;;;;;;3.45;1.48;;;;;;;20.83;34.23;102005.09;4974357;28;20521;-63
2023/05/20 01:14:02;;;;;;;5.40;1.52;;;;;;;20.79;34.00;101998.28;4958282;28;20109;-63
2023/05/20 01:16:30;;;;;;;2.58;1.20;;;;;;;20.74;34.33;101995.22;4958004;28;20432;-64
2023/05/20 01:18:56;;;;;;;2.35;1.48;;;;;;;20.74;34.98;102000.66;4974736;28;20502;-63
2023/05/20 01:21:22;;;;;;;6.38;1.60;;;;;;;20.70;34.26;102002.00;4974464;28;20180;-64
2023/05/20 01:23:47;;;;;;;1.67;1.10;;;;;;;20.66;35.18;102003.38;4974589;28;20526;-63
2023/05/20 01:26:13;;;;;;;2.58;1.05;;;;;;;20.63;34.89;102000.97;4939046;29;20027;-63
2023/05/20 01:28:39;;;;;;;3.67;1.35;;;;;;;20.59;34.53;102008.63;4957320;28;20407;-63
2023/05/20 01:31:20;;;;;;;1.90;0.88;;;;;;;20.55;34.60;102003.66;4944871;28;20073;-63
2023/05/20 01:33:46;;;;;;;5.50;1.23;;;;;;;20.51;34.77;102003.16;4960413;28;20511;-63
2023/05/20 01:36:12;;;;;;;3.88;1.40;;;;;;;20.49;35.21;102010.59;4956116;29;20042;-63
2023/05/20 01:38:38;;;;;;;5.75;1.60;;;;;;;20.48;34.90;101999.88;4947800;28;20510;-63
2023/05/20 01:41:04;;;;;;;2.30;1.27;;;;;;;20.45;35.01;101994.78;4957903;28;20507;-63
2023/05/20 01:43:30;;;;;;;4.88;1.27;;;;;;;20.41;35.31;101993.41;4965100;28;20026;-63
2023/05/20 01:45:55;;;;;;;3.67;1.10;;;;;;;20.36;34.78;101987.59;4958131;28;20487;-63
2023/05/20 01:48:21;;;;;;;3.42;1.60;;;;;;;20.33;35.17;101997.78;4974849;28;20081;-63
2023/05/20 01:50:46;;;;;;;1.63;1.30;;;;;;;20.29;35.47;101988.28;4937427;29;20514;-63
2023/05/20 01:53:12;;;;;;;1.38;1.13;;;;;;;20.25;35.23;101986.88;4960401;28;20511;-63
2023/05/20 01:55:37;;;;;;;1.40;1.30;;;;;;;20.19;35.33;101984.78;4957687;28;20121;-63
2023/05/20 01:58:03;;;;;;;4.50;1.20;;;;;;;20.18;35.28;101983.06;4957903;28;20054;-63
2023/05/20 02:00:28;;;;;;;3.47;1.20;;;;;;;20.15;35.11;101972.53;4974827;28;20042;-63
2023/05/20 02:02:55;;;;;;;4.00;1.30;;;;;;;20.11;35.81;101970.28;4954338;29;20031;-63
2023/05/20 02:05:20;;;;;;;1.73;1.10;;;;;;;20.12;35.59;101978.28;4954223;29;20024;-63
2023/05/20 02:07:45;;;;;;;5.28;1.25;;;;;;;20.08;36.24;101976.91;4939445;28;20037;-63
2023/05/20 02:10:11;;;;;;;8.60;1.50;;;;;;;20.07;35.23;101977.91;4957759;28;20030;-63
2023/05/20 02:12:36;;;;;;;1.92;1.30;;;;;;;20.04;35.61;101980.97;4973501;28;20121;-63
2023/05/20 02:15:02;;;;;;;4.55;1.40;;;;;;;20.00;35.69;101979.59;4941151;28;20037;-63
2023/05/20 02:17:27;;;;;;;2.53;1.38;;;;;;;19.97;35.72;101974.47;4957469;28;20110;-63
2023/05/20 02:19:53;;;;;;;1.63;1.20;;;;;;;19.94;35.42;101974.78;4957775;28;20110;-63
2023/05/20 02:22:18;;;;;;;2.42;1.60;;;;;;;19.90;35.85;101976.16;4974083;28;20035;-63
2023/05/20 02:24:43;;;;;;;4.07;1.73;;;;;;;19.89;36.23;101979.88;4938002;29;20027;-63
2023/05/20 02:27:09;;;;;;;3.35;1.40;;;;;;;19.85;35.57;101967.59;4953888;29;20135;-63
2023/05/20 02:29:34;;;;;;;2.90;1.05;;;;;;;19.80;35.61;101972.66;4962652;28;20038;-63
2023/05/20 02:32:00;;;;;;;5.43;1.17;;;;;;;19.78;35.80;101982.88;4972903;28;20487;-63
2023/05/20 02:34:26;;;;;;;1.42;1.02;;;;;;;19.73;36.06;101977.06;4957380;28;20073;-63
2023/05/20 02:36:51;;;;;;;2.97;1.38;;;;;;;19.71;35.71;101981.78;4989145;28;20407;-63
2023/05/20 02:39:17;;;;;;;2.53;0.98;;;;;;;19.69;36.38;101978.38;4974147;28;20114;-63
2023/05/20 02:41:42;;;;;;;5.10;1.30;;;;;;;19.66;35.97;101968.69;4956817;28;20069;-63
2023/05/20 02:44:08;;;;;;;7.07;1.45;;;;;;;19.63;36.24;101976.28;4972962;28;20517;-63
2023/05/20 02:46:33;;;;;;;2.30;1.42;;;;;;;19.61;35.96;101970.16;4973971;28;20029;-63
2023/05/20 02:48:58;;;;;;;2.70;1.48;;;;;;;19.57;36.18;101971.53;4973426;28;20039;-63
2023/05/20 02:51:24;;;;;;;3.05;1.20;;;;;;;19.54;36.11;101972.66;4972925;28;20093;-63
2023/05/20 02:53:50;;;;;;;1.73;1.17;;;;;;;19.51;36.22;101967.56;4974007;28;20034;-63
2023/05/20 02:56:20;;;;;;;2.63;1.40;;;;;;;19.48;36.10;101969.75;4972644;28;20049;-63
2023/05/20 02:58:45;;;;;;;2.13;1.15;;;;;;;19.45;36.34;101961.91;4973882;28;20078;-63
2023/05/20 03:01:10;;;;;;;1.88;1.20;;;;;;;19.43;36.58;101974.81;4972708;28;20061;-63
2023/05/20 03:03:36;;;;;;;6.45;1.52;;;;;;;19.40;36.48;101964.25;4972844;28;20525;-63
2023/05/20 03:06:02;;;;;;;3.65;1.70;;;;;;;19.38;36.16;101978.00;4972624;28;20499;-63
2023/05/20 03:08:28;;;;;;;3.10;1.60;;;;;;;19.36;36.90;101968.25;4972704;28;20046;-63
2023/05/20 03:10:53;;;;;;;5.88;1.48;;;;;;;19.36;36.70;101970.97;4988737;28;20050;-63
2023/05/20 03:13:19;;;;;;;1.90;1.35;;;;;;;19.29;37.04;101962.59;4989312;28;20450;-63
2023/05/20 03:15:44;;;;;;;4.90;1.00;;;;;;;19.31;36.27;101963.31;4972883;28;20053;-63
2023/05/20 03:18:11;;;;;;;2.33;1.27;;;;;;;19.29;36.52;101961.75;4989134;28;20458;-63
2023/05/20 03:20:40;;;;;;;1.98;1.20;;;;;;;19.28;36.73;101962.75;4972970;28;20035;-63
2023/05/20 03:23:06;;;;;;;3.40;1.50;;;;;;;19.24;36.48;101961.34;4972504;28;20061;-63
2023/05/20 03:25:31;;;;;;;3.95;1.30;;;;;;;19.24;37.19;101958.66;4972663;28;20471;-63
2023/05/20 03:27:58;;;;;;;5.95;1.30;;;;;;;19.23;36.84;101956.97;4972791;28;20041;-63
2023/05/20 03:30:23;;;;;;;2.35;1.05;;;;;;;19.18;36.82;101961.00;4973822;28;20031;-63
2023/05/20 03:32:49;;;;;;;1.95;0.90;;;;;;;19.18;37.21;101960.13;4989006;28;20545;-64
2023/05/20 03:35:15;;;;;;;4.68;1.70;;;;;;;19.15;37.29;101955.88;4972614;28;20041;-63
2023/05/20 03:37:40;;;;;;;3.17;1.25;;;;;;;19.14;37.55;101959.63;4988316;28;20495;-63
2023/05/20 03:40:09;;;;;;;3.75;1.60;;;;;;;19.08;36.92;101949.38;4972881;28;20078;-63
2023/05/20 03:42:34;;;;;;;2.50;1.23;;;;;;;19.08;37.81;101952.09;4981576;28;20042;-63
2023/05/20 03:45:00;;;;;;;3.83;1.25;;;;;;;19.05;37.16;101949.69;4984796;28;20411;-63
2023/05/20 03:47:26;;;;;;;4.40;1.52;;;;;;;19.05;36.82;101949.69;4991783;28;20039;-63
2023/05/20 03:49:52;;;;;;;5.18;1.05;;;;;;;19.03;37.82;101948.13;4991905;28;20034;-63
2023/05/20 03:52:17;;;;;;;1.90;0.90;;;;;;;19.01;36.62;101950.16;4993372;28;20022;-63
2023/05/20 03:54:43;;;;;;;2.17;1.13;;;;;;;18.96;37.46;101933.47;4991765;28;20042;-63
2023/05/20 03:57:09;;;;;;;2.85;1.27;;;;;;;18.95;37.54;101948.94;5007895;28;20039;-63
2023/05/20 03:59:35;;;;;;;2.53;1.67;;;;;;;18.94;36.86;101947.22;4990522;28;20533;-63
2023/05/20 04:02:00;;;;;;;3.97;1.40;;;;;;;18.90;37.62;101934.09;4990881;28;20062;-63
2023/05/20 04:04:26;;;;;;;1.23;1.13;;;;;;;18.85;37.82;101937.28;4992137;28;20066;-63
2023/05/20 04:06:53;;;;;;;2.33;1.33;;;;;;;18.86;37.09;101946.28;4991699;28;20029;-63
2023/05/20 04:09:18;;;;;;;4.25;1.40;;;;;;;18.87;37.17;101950.72;4991804;28;20121;-63
2023/05/20 04:11:44;;;;;;;2.40;1.67;;;;;;;18.86;38.27;101949.84;4976448;28;20061;-64
2023/05/20 04:14:10;;;;;;;2.63;1.13;;;;;;;18.87;37.74;101945.28;5011522;28;20388;-63
2023/05/20 04:16:36;;;;;;;2.58;1.30;;;;;;;18.86;37.39;101952.56;5011340;28;20068;-63
2023/05/20 04:19:02;;;;;;;5.78;1.67;;;;;;;18.86;37.80;101949.84;4995428;28;20463;-63
2023/05/20 04:21:28;;;;;;;5.85;1.40;;;;;;;18.84;37.86;101940.16;4996195;28;20038;-63
2023/05/20 04:23:53;;;;;;;3.03;1.50;;;;;;;18.88;38.18;101953.25;5012263;28;20172;-63
2023/05/20 04:26:19;;;;;;;6.35;1.60;;;;;;;18.86;38.50;101952.56;4978381;28;20034;-63
2023/05/20 04:28:47;;;;;;;3.15;1.65;;;;;;;18.89;38.08;101957.69;5011057;28;20105;-63
2023/05/20 04:31:13;;;;;;;4.28;1.60;;;;;;;18.90;37.73;101953.94;4979078;28;20109;-63
2023/05/20 04:33:38;;;;;;;7.78;1.80;;;;;;;18.93;38.51;101956.34;4994698;28;20117;-63
2023/05/20 04:36:06;;;;;;;4.93;1.67;;;;;;;18.93;38.04;101947.34;5011003;28;20507;-63
2023/05/20 04:38:31;;;;;;;2.85;1.52;;;;;;;18.94;38.08;101957.22;5009920;28;20125;-63
2023/05/20 04:41:00;;;;;;;4.90;1.67;;;;;;;18.97;38.07;101949.63;4978262;28;20046;-63
2023/05/20 04:43:28;;;;;;;4.43;1.58;;;;;;;19.04;38.63;101953.41;5011428;28;20026;-64
2023/05/20 04:45:54;;;;;;;2.85;1.67;;;;;;;19.13;38.65;101947.03;4994612;28;20045;-63
2023/05/20 04:48:21;;;;;;;2.40;1.42;;;;;;;19.20;38.12;101941.84;5010624;28;20038;-63
2023/05/20 04:50:48;;;;;;;2.72;1.75;;;;;;;19.30;38.51;101952.59;4994517;28;20165;-63
2023/05/20 04:53:16;;;;;;;3.97;1.92;;;;;;;19.36;37.88;101958.25;4994345;28;20113;-63
2023/05/20 04:56:04;;;;;;;5.18;1.98;;;;;;;19.41;38.41;101958.66;5010130;28;20038;-63
2023/05/20 04:58:30;;;;;;;2.65;1.40;;;;;;;19.48;38.34;101946.16;4994134;28;20050;-63
2023/05/20 05:00:55;;;;;;;1.65;1.27;;;;;;;19.56;38.25;101953.50;4994850;28;20161;-63
2023/05/20 05:03:21;;;;;;;5.10;1.77;;;;;;;19.58;38.23;101941.44;4994468;28;20031;-63
2023/05/20 05:05:46;;;;;;;4.22;1.60;;;;;;;19.65;38.02;101937.06;4977924;28;20041;-63
2023/05/20 05:08:12;;;;;;;3.38;1.48;;;;;;;19.77;37.69;101934.91;5009856;28;20406;-63
2023/05/20 05:10:37;;;;;;;2.88;1.90;;;;;;;19.84;37.94;101938.72;4994873;28;20056;-63
2023/05/20 05:13:03;;;;;;;3.85;1.67;;;;;;;19.91;37.64;101936.19;4996030;28;20018;-63
2023/05/20 05:15:29;;;;;;;5.10;1.63;;;;;;;20.01;38.08;101937.78;4994117;28;20062;-63
2023/05/20 05:17:54;;;;;;;2.05;1.45;;;;;;;20.10;38.46;101942.22;4977726;28;20030;-63
2023/05/20 05:20:20;;;;;;;4.47;1.70;;;;;;;20.18;38.14;101934.09;4989999;28;20053;-63
2023/05/20 05:22:45;;;;;;;3.45;1.52;;;;;;;20.25;37.29;101934.31;4993810;28;20045;-63
2023/05/20 05:25:11;;;;;;;7.45;2.67;;;;;;;20.33;37.78;101937.91;4993714;28;20018;-63
2023/05/20 05:27:37;;;;;;;3.00;1.40;;;;;;;20.43;38.04;101931.50;4993775;28;20051;-62
2023/05/20 05:30:04;;;;;;;7.30;1.60;;;;;;;20.55;37.51;101939.16;4993483;28;20042;-63
2023/05/20 05:32:30;;;;;;;3.63;1.33;;;;;;;20.64;37.91;101940.88;4977178;28;20035;-63
2023/05/20 05:34:56;;;;;;;3.55;1.85;;;;;;;20.75;37.44;101936.97;5009756;28;20494;-62
2023/05/20 05:37:22;;;;;;;6.45;2.25;;;;;;;20.82;37.98;101927.13;4994048;28;20041;-63
2023/05/20 05:39:47;;;;;;;3.67;1.55;;;;;;;20.99;37.14;101928.00;4993537;28;20030;-63
2023/05/20 05:42:14;;;;;;;3.33;1.48;;;;;;;21.12;37.22;101929.22;4993330;28;20050;-64
2023/05/20 05:44:40;;;;;;;4.68;1.70;;;;;;;21.28;37.41;101934.66;4993877;28;20034;-63
2023/05/20 05:47:05;;;;;;;3.22;1.40;;;;;;;21.43;37.00;101922.03;4993861;28;20034;-63
2023/05/20 05:49:31;;;;;;;3.50;1.30;;;;;;;21.56;36.69;101926.06;4978138;28;20125;-64
2023/05/20 05:51:56;;;;;;;5.50;1.60;;;;;;;21.69;36.56;101919.06;4993947;28;20049;-64
2023/05/20 05:54:22;;;;;;;6.93;2.03;;;;;;;21.82;37.27;101922.09;4993661;28;20054;-64
2023/05/20 05:56:47;;;;;;;3.97;1.45;;;;;;;21.94;36.64;101920.72;5009915;28;20073;-63
2023/05/20 05:59:14;;;;;;;1.85;1.40;;;;;;;22.06;37.19;101918.44;4994456;28;20045;-64
2023/05/20 06:01:40;;;;;;;1.80;1.33;;;;;;;22.16;37.01;101915.50;5009595;28;20030;-63
2023/05/20 06:04:05;;;;;;;3.72;1.63;;;;;;;22.26;36.83;101919.72;4993899;28;20048;-63
2023/05/20 06:06:30;;;;;;;4.78;1.60;;;;;;;22.31;36.75;101917.28;4993083;28;20057;-64
2023/05/20 06:08:59;;;;;;;2.58;1.38;;;;;;;22.37;36.68;101913.84;4992733;28;20070;-65
2023/05/20 06:11:25;;;;;;;3.10;1.48;;;;;;;22.42;36.93;101914.16;5008727;28;20455;-64
2023/05/20 06:13:50;;;;;;;2.00;1.30;;;;;;;22.51;36.39;101910.34;4993166;28;20037;-66
2023/05/20 06:16:16;;;;;;;2.90;1.40;;;;;;;22.60;36.69;101909.28;4993265;28;20045;-64
2023/05/20 06:18:41;;;;;;;4.15;1.73;;;;;;;22.72;36.51;101915.22;4961608;28;20035;-64
2023/05/20 06:21:07;;;;;;;2.80;1.55;;;;;;;22.84;36.05;101907.41;4973666;28;20035;-63
2023/05/20 06:23:32;;;;;;;4.00;1.70;;;;;;;22.96;36.75;101900.50;4957611;28;20118;-64
2023/05/20 06:25:58;;;;;;;10.27;1.63;;;;;;;23.10;36.93;101902.41;4973675;28;20031;-63
2023/05/20 06:28:24;;;;;;;4.65;2.05;;;;;;;23.23;35.92;101908.09;4974036;28;20022;-64
2023/05/20 06:30:51;;;;;;;4.35;1.92;;;;;;;23.32;35.60;101904.25;4957671;28;20086;-64
2023/05/20 06:33:18;;;;;;;2.78;1.60;;;;;;;23.44;36.26;101902.81;4957676;28;20504;-64
2023/05/20 06:35:43;;;;;;;5.63;2.67;;;;;;;23.54;36.28;101897.91;4972850;28;20061;-62
2023/05/20 06:38:09;;;;;;;8.70;2.17;;;;;;;23.62;36.46;101897.81;4976375;28;20058;-64
2023/05/20 06:40:34;;;;;;;1.98;1.63;;;;;;;23.68;36.19;101890.72;4960257;28;20371;-62
2023/05/20 06:43:00;;;;;;;2.92;1.77;;;;;;;23.75;35.28;101892.53;4976153;28;20064;-66
2023/05/20 06:45:25;;;;;;;4.70;1.75;;;;;;;23.85;35.49;101894.97;4974846;28;20510;-66
2023/05/20 06:47:52;;;;;;;4.05;1.65;;;;;;;23.97;36.13;101893.47;4974650;28;20047;-65
2023/05/20 06:50:18;;;;;;;2.50;1.35;;;;;;;24.10;35.66;101892.81;4973610;28;20046;-63
2023/05/20 06:52:44;;;;;;;5.00;1.70;;;;;;;24.17;35.23;101880.91;4974401;28;20085;-65
2023/05/20 06:55:09;;;;;;;11.00;2.40;;;;;;;24.31;35.17;101879.16;4973625;28;20031;-65
2023/05/20 06:57:35;;;;;;;2.13;1.30;;;;;;;24.34;35.04;101885.09;4973434;28;20123;-65
2023/05/20 07:00:00;;;;;;;2.13;1.52;;;;;;;24.44;34.86;101887.53;4973410;28;20041;-66
2023/05/20 07:02:26;;;;;;;3.90;1.67;;;;;;;24.53;35.02;101880.88;4973628;28;20109;-65
2023/05/20 07:04:51;;;;;;;4.95;2.92;;;;;;;24.77;35.23;101883.22;4973354;28;20023;-65
2023/05/20 07:07:17;;;;;;;4.93;1.90;;;;;;;24.92;34.50;101871.38;4975023;28;20043;-65
2023/05/20 07:09:42;;;;;;;3.60;1.58;;;;;;;25.02;34.21;101874.63;4957692;28;20051;-65
2023/05/20 07:12:08;;;;;;;3.50;1.70;;;;;;;25.06;34.74;101870.44;4973818;28;20034;-65
2023/05/20 07:14:33;;;;;;;4.05;1.70;;;;;;;25.09;34.79;101876.38;4973578;28;20053;-65
2023/05/20 07:17:00;;;;;;;2.85;1.83;;;;;;;25.18;34.36;101864.19;4973206;28;20034;-65
2023/05/20 07:19:25;;;;;;;4.18;2.05;;;;;;;25.25;34.24;101876.09;4972827;28;20035;-65
2023/05/20 07:21:50;;;;;;;1.98;1.60;;;;;;;25.32;33.95;101876.97;4974089;28;20562;-65
2023/05/20 07:24:16;;;;;;;2.28;1.60;;;;;;;25.42;34.09;101866.50;4973060;28;20117;-65
2023/05/20 07:26:41;;;;;;;2.17;1.75;;;;;;;25.47;34.05;101865.91;4956811;28;20553;-67
2023/05/20 07:29:08;;;;;;;2.55;2.35;;;;;;;25.49;33.66;101871.22;4972887;28;20110;-65
2023/05/20 07:31:35;;;;;;;4.93;1.85;;;;;;;25.62;33.93;101861.16;4956782;28;20019;-65
2023/05/20 07:34:02;;;;;;;3.08;2.28;;;;;;;25.77;33.66;101864.63;4974764;28;20022;-65
2023/05/20 07:36:28;;;;;;;3.50;2.03;;;;;;;25.90;33.72;101858.34;4972562;28;20063;-64
2023/05/20 07:38:54;;;;;;;7.47;2.13;;;;;;;26.04;33.55;101855.47;4973927;28;20460;-66
2023/05/20 07:41:20;;;;;;;4.95;1.92;;;;;;;26.22;33.55;101867.78;4972681;28;20086;-66
2023/05/20 07:43:45;;;;;;;2.92;2.15;;;;;;;26.36;33.30;101855.78;4972580;28;20399;-66
2023/05/20 07:46:10;;;;;;;4.78;2.13;;;;;;;26.46;32.71;101856.25;4973128;28;20443;-66
2023/05/20 07:48:36;;;;;;;6.68;1.92;;;;;;;26.62;32.97;101858.59;4976399;28;20121;-66
2023/05/20 07:51:01;;;;;;;3.17;1.77;;;;;;;26.72;33.29;101858.19;4960129;28;20122;-66
2023/05/20 07:53:27;;;;;;;3.08;1.70;;;;;;;26.85;32.78;101852.72;4976098;28;20030;-66
2023/05/20 07:55:52;;;;;;;3.08;2.20;;;;;;;26.94;32.60;101844.03;4959806;28;20038;-65
2023/05/20 07:58:17;;;;;;;4.80;2.08;;;;;;;27.04;32.77;101847.22;4976511;28;20046;-66
2023/05/20 08:00:43;;;;;;;3.45;1.52;;;;;;;27.21;32.36;101849.53;4976283;28;20031;-66
2023/05/20 08:03:09;;;;;;;5.10;2.00;;;;;;;27.25;32.35;101839.81;4977316;28;20027;-66
2023/05/20 08:05:37;;;;;;;3.42;2.08;;;;;;;27.34;31.49;101833.00;4992344;28;20114;-66
2023/05/20 08:08:03;;;;;;;3.45;2.00;;;;;;;27.46;32.69;101836.81;4992089;28;20419;-66
2023/05/20 08:10:29;;;;;;;1.95;1.73;;;;;;;27.58;32.52;101835.94;4975826;28;20038;-66
2023/05/20 08:12:55;;;;;;;5.90;1.85;;;;;;;27.73;31.56;101825.50;4960300;28;20459;-66
2023/05/20 08:15:21;;;;;;;3.03;1.83;;;;;;;27.82;32.22;101839.88;4975946;28;20035;-66
2023/05/20 08:17:46;;;;;;;3.30;1.77;;;;;;;27.93;32.45;101835.59;4991802;28;20050;-66
2023/05/20 08:20:12;;;;;;;4.07;1.88;;;;;;;28.01;31.49;101830.69;4975587;28;20068;-66
2023/05/20 08:22:37;;;;;;;3.40;2.20;;;;;;;28.08;31.54;101823.28;4975629;28;20035;-66
2023/05/20 08:25:03;;;;;;;3.47;2.13;;;;;;;28.18;31.13;101823.63;4960044;28;20025;-66
2023/05/20 08:27:29;;;;;;;5.70;1.88;;;;;;;28.16;31.73;101825.78;4975628;28;20401;-66
2023/05/20 08:29:54;;;;;;;2.78;1.92;;;;;;;28.35;31.54;101823.09;4959487;28;20398;-66
2023/05/20 08:32:19;;;;;;;3.10;2.30;;;;;;;28.55;31.50;101826.59;4975469;28;20031;-66
2023/05/20 08:34:45;;;;;;;2.53;1.80;;;;;;;28.72;31.75;101816.72;4976687;28;20037;-66
2023/05/20 08:37:10;;;;;;;2.50;1.80;;;;;;;28.85;30.62;101811.09;4975492;28;20118;-66
2023/05/20 08:39:35;;;;;;;4.00;1.77;;;;;;;28.95;31.11;101824.41;4975285;28;20117;-66
2023/05/20 08:42:01;;;;;;;3.25;2.28;;;;;;;29.13;30.46;101811.47;4958745;28;20384;-66
2023/05/20 08:44:28;;;;;;;3.63;1.77;;;;;;;29.27;31.13;101807.53;4974880;28;20035;-67
2023/05/20 08:46:55;;;;;;;2.90;1.90;;;;;;;29.33;30.55;101803.03;4974431;28;20085;-66
2023/05/20 08:49:21;;;;;;;3.22;2.22;;;;;;;29.53;29.88;101800.03;4975674;28;20027;-66
2023/05/20 08:51:47;;;;;;;4.53;2.20;;;;;;;29.73;30.35;101811.69;4975032;28;20047;-67
2023/05/20 08:54:13;;;;;;;6.93;2.17;;;;;;;29.29;30.14;101805.38;4976515;28;20062;-67
2023/05/20 08:56:40;;;;;;;3.70;2.20;;;;;;;29.18;30.39;101791.47;4958659;28;20088;-67
2023/05/20 08:59:07;;;;;;;8.05;1.75;;;;;;;29.15;30.24;101786.38;4957559;28;20049;-66
2023/05/20 09:01:36;;;;;;;3.50;2.25;;;;;;;29.49;29.96;101805.16;4958547;28;20026;-66
2023/05/20 09:04:02;;;;;;;4.85;1.75;;;;;;;29.78;29.45;101801.63;4959080;28;20015;-67
2023/05/20 09:06:28;;;;;;;3.08;1.92;;;;;;;29.32;30.05;101802.16;4974541;28;20030;-66
2023/05/20 09:08:53;;;;;;;2.40;1.80;;;;;;;29.66;29.57;101799.88;4958498;28;20038;-67
2023/05/20 09:11:21;;;;;;;2.72;1.90;;;;;;;29.41;29.84;101792.53;4958529;28;20034;-67
2023/05/20 09:13:46;;;;;;;6.13;2.03;;;;;;;29.24;30.35;101787.81;4975084;28;20038;-67
2023/05/20 09:16:12;;;;;;;1.60;1.40;;;;;;;29.19;30.02;101787.63;4975483;28;20041;-67
2023/05/20 09:18:39;;;;;;;3.60;1.67;;;;;;;29.27;30.46;101790.97;4959062;28;20486;-67
2023/05/20 09:21:07;;;;;;;3.92;1.80;;;;;;;29.87;29.31;101794.72;4975098;28;20026;-67
2023/05/20 09:23:35;;;;;;;1.77;1.33;;;;;;;29.88;29.60;101787.28;4974890;28;20034;-67
2023/05/20 09:26:01;;;;;;;3.38;1.88;;;;;;;29.68;29.78;101797.72;4958350;28;20038;-67
2023/05/20 09:28:27;;;;;;;6.28;1.75;;;;;;;29.85;29.76;101798.81;4975036;28;20030;-67
2023/05/20 09:30:59;;;;;;;3.55;1.60;;;;;;;30.05;28.99;101788.31;4958383;28;20062;-67
2023/05/20 09:33:31;;;;;;;4.32;1.88;;;;;;;30.08;29.45;101775.94;4990341;28;20035;-67
2023/05/20 09:36:03;;;;;;;7.60;2.35;;;;;;;30.66;28.96;101778.91;4975330;28;20044;-67
2023/05/20 09:38:36;;;;;;;2.28;2.08;;;;;;;31.06;28.53;101774.38;4958270;28;20125;-67
2023/05/20 09:41:10;;;;;;;3.35;1.83;;;;;;;31.32;28.68;101770.28;4975970;28;20034;-67
2023/05/20 09:43:36;;;;;;;6.25;3.83;;;;;;;31.54;28.45;101774.97;4942514;28;20062;-67
2023/05/20 09:46:03;;;;;;;3.58;2.38;;;;;;;31.80;28.18;101778.28;4974461;28;20038;-67
2023/05/20 09:48:29;;;;;;;4.80;2.15;;;;;;;31.52;28.94;101779.88;4973991;28;20054;-67
2023/05/20 09:50:56;;;;;;;2.90;2.22;;;;;;;31.64;28.33;101777.09;4957655;28;20038;-67
2023/05/20 09:53:24;;;;;;;3.15;1.67;;;;;;;31.73;28.71;101775.63;4974973;28;20121;-67
2023/05/20 09:55:50;;;;;;;3.05;1.77;;;;;;;31.38;28.34;101764.59;4957628;28;20046;-68
2023/05/20 09:58:16;;;;;;;5.65;1.70;;;;;;;31.68;28.50;101778.31;4973793;28;20107;-67
2023/05/20 10:00:42;;;;;;;3.40;1.27;;;;;;;31.51;28.23;101772.69;4973620;28;20038;-67
2023/05/20 10:03:07;;;;;;;2.25;1.83;;;;;;;31.77;27.66;101767.66;4973728;28;20402;-68
2023/05/20 10:05:40;;;;;;;2.50;1.88;;;;;;;31.97;27.93;101773.59;4973683;28;20037;-68
2023/05/20 10:08:21;;;;;;;4.40;2.00;;;;;;;31.56;28.04;101758.94;4957320;28;20046;-68
2023/05/20 10:10:56;;;;;;;3.80;1.88;;;;;;;31.50;28.57;101757.13;4974701;28;20033;-68
2023/05/20 10:13:27;;;;;;;3.92;1.73;;;;;;;31.59;28.54;101763.97;4957850;28;20109;-68
2023/05/20 10:16:22;;;;;;;2.90;1.63;;;;;;;31.70;28.71;101765.03;4975116;28;20042;-67
2023/05/20 10:19:00;;;;;;;3.17;2.10;;;;;;;31.86;28.20;101757.84;4973325;28;20046;-67
2023/05/20 10:21:26;;;;;;;9.05;2.28;;;;;;;32.11;27.58;101759.22;4973410;28;20450;-68
2023/05/20 10:23:52;;;;;;;2.70;1.90;;;;;;;32.17;27.78;101760.16;4973300;28;20562;-68
2023/05/20 10:26:18;;;;;;;4.45;2.00;;;;;;;32.18;28.31;101762.69;4957310;28;20037;-68
2023/05/20 10:28:45;;;;;;;4.05;2.25;;;;;;;32.26;28.01;101758.66;4956959;28;20367;-68
2023/05/20 10:31:17;;;;;;;3.17;2.55;;;;;;;32.51;28.17;101750.78;4973491;28;20026;-68
2023/05/20 10:33:44;;;;;;;1.77;1.60;;;;;;;32.79;27.69;101752.66;4973476;28;20034;-67
2023/05/20 10:36:21;;;;;;;4.53;2.03;;;;;;;32.96;28.09;101744.31;4957260;28;20034;-68
2023/05/20 10:38:54;;;;;;;5.60;2.00;;;;;;;33.09;27.52;101735.63;4989947;28;20458;-68
2023/05/20 10:41:22;;;;;;;4.95;2.22;;;;;;;33.24;27.25;101733.06;4973658;28;20395;-68
2023/05/20 10:44:01;;;;;;;3.20;2.92;;;;;;;33.56;27.20;101741.56;4957061;28;20403;-68
2023/05/20 10:46:28;;;;;;;2.45;2.05;;;;;;;33.69;26.93;101739.25;4957804;28;20411;-69
2023/05/20 10:48:53;;;;;;;2.25;1.67;;;;;;;32.96;27.24;101741.53;4973864;28;20034;-68
2023/05/20 10:51:20;;;;;;;3.42;2.38;;;;;;;32.79;27.15;101747.94;4973386;28;20074;-68
2023/05/20 10:53:45;;;;;;;3.70;2.45;;;;;;;32.95;26.79;101742.59;4973758;28;20090;-68
2023/05/20 10:56:18;;;;;;;6.00;2.00;;;;;;;32.47;27.24;101738.50;4972555;28;20058;-68
2023/05/20 10:58:44;;;;;;;4.68;1.90;;;;;;;32.54;27.48;101739.22;4975708;28;20078;-68
2023/05/20 11:01:09;;;;;;;3.45;2.22;;;;;;;32.35;27.13;101740.53;4958193;28;20109;-68
2023/05/20 11:03:35;;;;;;;3.47;2.22;;;;;;;32.79;26.69;101747.94;4972608;28;20093;-67
2023/05/20 11:06:00;;;;;;;4.32;2.60;;;;;;;33.34;26.76;101747.09;4957409;28;20035;-68
2023/05/20 11:08:30;;;;;;;4.25;2.60;;;;;;;32.80;26.74;101727.41;4974595;28;20038;-68
2023/05/20 11:10:56;;;;;;;5.45;2.58;;;;;;;33.18;27.14;101734.09;4973224;28;20439;-68
2023/05/20 11:13:22;;;;;;;4.45;2.67;;;;;;;33.34;26.40;101728.50;4973818;28;20101;-68
2023/05/20 11:15:48;;;;;;;3.42;2.63;;;;;;;33.68;26.26;101734.78;4956620;28;20085;-68
2023/05/20 11:18:14;;;;;;;6.78;2.72;;;;;;;33.90;25.71;101723.63;4973146;28;20038;-68
2023/05/20 11:20:39;;;;;;;3.50;2.78;;;;;;;34.39;26.21;101713.28;4951523;28;20031;-67